logo dgac
Martes 21 de Septiembre del 2021
Buscar por aerodromo o helipuerto
Ingrese nombre de aeródromo, localidad o designador OACI:
TAF: TAF SCIE 210400Z 2106/2206 22005KT CAVOK TX18/2118Z TN06/2110Z BECMG 2116/2118 01010KT BECMG 2200/2202 SCT010
TAF del 21/09/2021 a las 04:00 UTC
Para mayor información visite www.meteochile.cl
Período de validez: desde el 21 a las 06:00 UTC hasta el 22 a las 06:00 UTC
Viento: dirección 220 grados, velocidad 5 nudos
Visibilidad: 10 km o más,
    sin nubes bajo los 5.000 pies o bajo del MSA (Mínimo de Seguridad del Aeródromo),
    sin cumulonimbus, y sin fenómenos de tiempo significativo en el aeródromo o alrededores
Temperatura máxima: 18ºC el 21 a las 18:00 UTC
Temperatura mínima: 6ºC el 21 a las 10:00 UTC
Se espera un cambio entre las 16:00 UTC del 21 y las 18:00 UTC del 21, :
Viento: dirección 010 grados, velocidad 10 nudos
Se espera un cambio entre las 00:00 UTC del 22 y las 02:00 UTC del 22, :
Nubes: Nubosidad parcial a 1000 pies sobre el nivel del aeródromo